sensor_id;sensor_type;location;lat;lon;timestamp;P1;durP1;ratioP1;P2;durP2;ratioP2
14191;SDS011;7177;48.572;7.838;2022-12-29T00:02:20;3.53;;;2.00;;
14191;SDS011;7177;48.572;7.838;2022-12-29T00:04:46;3.80;;;2.07;;
14191;SDS011;7177;48.572;7.838;2022-12-29T00:07:13;2.97;;;2.10;;
14191;SDS011;7177;48.572;7.838;2022-12-29T00:09:39;5.13;;;2.10;;
14191;SDS011;7177;48.572;7.838;2022-12-29T00:12:04;4.27;;;2.00;;
14191;SDS011;7177;48.572;7.838;2022-12-29T00:14:30;3.80;;;2.17;;
14191;SDS011;7177;48.572;7.838;2022-12-29T00:17:14;4.33;;;2.20;;
14191;SDS011;7177;48.572;7.838;2022-12-29T00:19:40;2.97;;;2.00;;
14191;SDS011;7177;48.572;7.838;2022-12-29T00:22:25;4.57;;;2.50;;
14191;SDS011;7177;48.572;7.838;2022-12-29T00:25:10;3.20;;;2.40;;
14191;SDS011;7177;48.572;7.838;2022-12-29T00:27:56;5.47;;;2.67;;
14191;SDS011;7177;48.572;7.838;2022-12-29T00:30:41;4.73;;;2.10;;
14191;SDS011;7177;48.572;7.838;2022-12-29T00:33:26;3.47;;;2.30;;
14191;SDS011;7177;48.572;7.838;2022-12-29T00:38:58;4.30;;;3.03;;
14191;SDS011;7177;48.572;7.838;2022-12-29T00:41:44;4.70;;;2.67;;
14191;SDS011;7177;48.572;7.838;2022-12-29T00:44:28;3.83;;;2.03;;
14191;SDS011;7177;48.572;7.838;2022-12-29T00:46:54;5.73;;;2.87;;
14191;SDS011;7177;48.572;7.838;2022-12-29T00:49:19;3.53;;;2.57;;
14191;SDS011;7177;48.572;7.838;2022-12-29T00:54:33;3.03;;;2.40;;
14191;SDS011;7177;48.572;7.838;2022-12-29T00:57:00;2.47;;;1.97;;
14191;SDS011;7177;48.572;7.838;2022-12-29T00:59:26;5.83;;;2.50;;
14191;SDS011;7177;48.572;7.838;2022-12-29T01:01:52;3.53;;;2.20;;
14191;SDS011;7177;48.572;7.838;2022-12-29T01:04:18;4.67;;;2.40;;
14191;SDS011;7177;48.572;7.838;2022-12-29T01:06:45;2.73;;;2.30;;
14191;SDS011;7177;48.572;7.838;2022-12-29T01:09:11;3.13;;;2.03;;
14191;SDS011;7177;48.572;7.838;2022-12-29T01:11:55;2.60;;;1.97;;
14191;SDS011;7177;48.572;7.838;2022-12-29T01:14:21;3.60;;;2.40;;
14191;SDS011;7177;48.572;7.838;2022-12-29T01:16:47;4.23;;;2.17;;
14191;SDS011;7177;48.572;7.838;2022-12-29T01:19:14;3.97;;;2.40;;
14191;SDS011;7177;48.572;7.838;2022-12-29T01:21:40;3.53;;;2.07;;
14191;SDS011;7177;48.572;7.838;2022-12-29T01:24:05;5.03;;;2.10;;
14191;SDS011;7177;48.572;7.838;2022-12-29T01:26:31;4.37;;;2.30;;
14191;SDS011;7177;48.572;7.838;2022-12-29T01:28:57;4.47;;;2.10;;
14191;SDS011;7177;48.572;7.838;2022-12-29T01:31:22;2.70;;;1.93;;
14191;SDS011;7177;48.572;7.838;2022-12-29T01:33:48;4.40;;;2.30;;
14191;SDS011;7177;48.572;7.838;2022-12-29T01:36:14;4.43;;;2.20;;
14191;SDS011;7177;48.572;7.838;2022-12-29T01:38:41;4.10;;;1.80;;
14191;SDS011;7177;48.572;7.838;2022-12-29T01:41:07;3.13;;;2.00;;
14191;SDS011;7177;48.572;7.838;2022-12-29T01:43:38;3.20;;;1.97;;
14191;SDS011;7177;48.572;7.838;2022-12-29T01:46:42;3.13;;;1.93;;
14191;SDS011;7177;48.572;7.838;2022-12-29T01:49:04;2.10;;;1.70;;
14191;SDS011;7177;48.572;7.838;2022-12-29T01:51:34;4.33;;;1.90;;
14191;SDS011;7177;48.572;7.838;2022-12-29T01:54:04;4.13;;;2.33;;
14191;SDS011;7177;48.572;7.838;2022-12-29T01:56:34;3.33;;;2.00;;
14191;SDS011;7177;48.572;7.838;2022-12-29T01:59:02;2.57;;;1.77;;
14191;SDS011;7177;48.572;7.838;2022-12-29T02:01:32;4.20;;;1.80;;
14191;SDS011;7177;48.572;7.838;2022-12-29T02:03:57;4.90;;;2.13;;
14191;SDS011;7177;48.572;7.838;2022-12-29T02:06:26;2.60;;;1.80;;
14191;SDS011;7177;48.572;7.838;2022-12-29T02:08:56;2.60;;;1.97;;
14191;SDS011;7177;48.572;7.838;2022-12-29T02:11:23;5.50;;;2.30;;
14191;SDS011;7177;48.572;7.838;2022-12-29T02:13:50;3.23;;;1.93;;
14191;SDS011;7177;48.572;7.838;2022-12-29T02:16:20;4.50;;;2.23;;
14191;SDS011;7177;48.572;7.838;2022-12-29T02:21:56;3.57;;;1.97;;
14191;SDS011;7177;48.572;7.838;2022-12-29T02:33:23;3.53;;;1.70;;
14191;SDS011;7177;48.572;7.838;2022-12-29T02:36:20;7.13;;;1.80;;
14191;SDS011;7177;48.572;7.838;2022-12-29T02:39:13;3.40;;;2.00;;
14191;SDS011;7177;48.572;7.838;2022-12-29T02:42:00;4.27;;;1.67;;
14191;SDS011;7177;48.572;7.838;2022-12-29T02:45:02;2.60;;;1.50;;
14191;SDS011;7177;48.572;7.838;2022-12-29T02:47:48;2.17;;;1.77;;
14191;SDS011;7177;48.572;7.838;2022-12-29T02:50:33;2.37;;;1.90;;
14191;SDS011;7177;48.572;7.838;2022-12-29T02:53:09;2.63;;;2.20;;
14191;SDS011;7177;48.572;7.838;2022-12-29T02:55:38;3.87;;;1.70;;
14191;SDS011;7177;48.572;7.838;2022-12-29T02:58:17;2.53;;;1.80;;
14191;SDS011;7177;48.572;7.838;2022-12-29T03:17:49;2.63;;;1.80;;
14191;SDS011;7177;48.572;7.838;2022-12-29T03:20:23;2.77;;;1.80;;
14191;SDS011;7177;48.572;7.838;2022-12-29T03:22:53;2.10;;;1.80;;
14191;SDS011;7177;48.572;7.838;2022-12-29T03:25:28;2.43;;;1.70;;
14191;SDS011;7177;48.572;7.838;2022-12-29T03:27:58;4.97;;;1.93;;
14191;SDS011;7177;48.572;7.838;2022-12-29T03:30:31;7.13;;;2.17;;
14191;SDS011;7177;48.572;7.838;2022-12-29T03:33:03;2.53;;;1.60;;
14191;SDS011;7177;48.572;7.838;2022-12-29T03:35:34;5.37;;;1.83;;
14191;SDS011;7177;48.572;7.838;2022-12-29T03:38:05;4.00;;;1.90;;
14191;SDS011;7177;48.572;7.838;2022-12-29T03:40:45;3.47;;;1.77;;
14191;SDS011;7177;48.572;7.838;2022-12-29T03:43:14;2.30;;;1.87;;
14191;SDS011;7177;48.572;7.838;2022-12-29T03:45:40;2.83;;;1.73;;
14191;SDS011;7177;48.572;7.838;2022-12-29T03:48:06;3.50;;;1.80;;
14191;SDS011;7177;48.572;7.838;2022-12-29T03:50:31;3.07;;;1.80;;
14191;SDS011;7177;48.572;7.838;2022-12-29T03:52:57;3.73;;;1.73;;
14191;SDS011;7177;48.572;7.838;2022-12-29T03:55:22;2.70;;;1.80;;
14191;SDS011;7177;48.572;7.838;2022-12-29T03:57:48;5.67;;;2.20;;
14191;SDS011;7177;48.572;7.838;2022-12-29T04:00:13;5.17;;;2.13;;
14191;SDS011;7177;48.572;7.838;2022-12-29T04:02:39;3.77;;;2.10;;
14191;SDS011;7177;48.572;7.838;2022-12-29T04:05:05;3.33;;;2.20;;
14191;SDS011;7177;48.572;7.838;2022-12-29T04:07:31;2.83;;;1.97;;
14191;SDS011;7177;48.572;7.838;2022-12-29T04:09:56;1.70;;;1.57;;
14191;SDS011;7177;48.572;7.838;2022-12-29T04:12:22;2.53;;;1.97;;
14191;SDS011;7177;48.572;7.838;2022-12-29T04:14:47;5.17;;;2.13;;
14191;SDS011;7177;48.572;7.838;2022-12-29T04:17:13;4.60;;;2.07;;
14191;SDS011;7177;48.572;7.838;2022-12-29T04:19:38;4.90;;;2.30;;
14191;SDS011;7177;48.572;7.838;2022-12-29T04:22:04;3.40;;;2.10;;
14191;SDS011;7177;48.572;7.838;2022-12-29T04:24:29;4.20;;;2.40;;
14191;SDS011;7177;48.572;7.838;2022-12-29T04:26:55;4.53;;;2.20;;
14191;SDS011;7177;48.572;7.838;2022-12-29T04:29:20;6.40;;;2.50;;
14191;SDS011;7177;48.572;7.838;2022-12-29T04:31:46;5.57;;;2.60;;
14191;SDS011;7177;48.572;7.838;2022-12-29T04:34:11;3.67;;;2.30;;
14191;SDS011;7177;48.572;7.838;2022-12-29T04:36:37;2.53;;;1.80;;
14191;SDS011;7177;48.572;7.838;2022-12-29T04:39:04;3.50;;;2.40;;
14191;SDS011;7177;48.572;7.838;2022-12-29T04:41:30;2.83;;;2.07;;
14191;SDS011;7177;48.572;7.838;2022-12-29T04:43:56;3.70;;;2.30;;
14191;SDS011;7177;48.572;7.838;2022-12-29T04:46:21;4.93;;;2.77;;
14191;SDS011;7177;48.572;7.838;2022-12-29T04:48:47;6.03;;;2.40;;
14191;SDS011;7177;48.572;7.838;2022-12-29T04:51:12;4.80;;;2.30;;
14191;SDS011;7177;48.572;7.838;2022-12-29T04:53:38;3.33;;;2.50;;
14191;SDS011;7177;48.572;7.838;2022-12-29T04:56:04;3.60;;;2.23;;
14191;SDS011;7177;48.572;7.838;2022-12-29T04:58:30;4.90;;;2.40;;
14191;SDS011;7177;48.572;7.838;2022-12-29T05:00:55;4.00;;;2.40;;
14191;SDS011;7177;48.572;7.838;2022-12-29T05:03:21;3.80;;;2.30;;
14191;SDS011;7177;48.572;7.838;2022-12-29T05:05:46;4.77;;;2.30;;
14191;SDS011;7177;48.572;7.838;2022-12-29T05:08:12;3.37;;;2.60;;
14191;SDS011;7177;48.572;7.838;2022-12-29T05:10:37;5.87;;;2.90;;
14191;SDS011;7177;48.572;7.838;2022-12-29T05:13:03;4.83;;;2.43;;
14191;SDS011;7177;48.572;7.838;2022-12-29T05:15:28;4.93;;;2.43;;
14191;SDS011;7177;48.572;7.838;2022-12-29T05:17:54;5.37;;;2.70;;
14191;SDS011;7177;48.572;7.838;2022-12-29T05:20:19;4.00;;;2.70;;
14191;SDS011;7177;48.572;7.838;2022-12-29T05:22:45;4.10;;;2.57;;
14191;SDS011;7177;48.572;7.838;2022-12-29T05:25:10;3.20;;;2.30;;
14191;SDS011;7177;48.572;7.838;2022-12-29T05:27:36;4.57;;;2.80;;
14191;SDS011;7177;48.572;7.838;2022-12-29T05:30:02;4.77;;;2.80;;
14191;SDS011;7177;48.572;7.838;2022-12-29T05:32:28;3.97;;;2.47;;
14191;SDS011;7177;48.572;7.838;2022-12-29T05:34:53;3.80;;;2.37;;
14191;SDS011;7177;48.572;7.838;2022-12-29T05:37:19;3.97;;;2.87;;
14191;SDS011;7177;48.572;7.838;2022-12-29T05:39:44;4.90;;;2.80;;
14191;SDS011;7177;48.572;7.838;2022-12-29T05:42:10;3.27;;;2.60;;
14191;SDS011;7177;48.572;7.838;2022-12-29T05:44:35;4.33;;;2.23;;
14191;SDS011;7177;48.572;7.838;2022-12-29T05:47:02;5.87;;;2.70;;
14191;SDS011;7177;48.572;7.838;2022-12-29T05:49:28;5.30;;;2.50;;
14191;SDS011;7177;48.572;7.838;2022-12-29T05:51:53;4.27;;;2.50;;
14191;SDS011;7177;48.572;7.838;2022-12-29T05:54:19;5.73;;;2.80;;
14191;SDS011;7177;48.572;7.838;2022-12-29T05:56:44;4.43;;;2.80;;
14191;SDS011;7177;48.572;7.838;2022-12-29T05:59:10;6.47;;;3.00;;
14191;SDS011;7177;48.572;7.838;2022-12-29T06:01:35;7.27;;;3.13;;
14191;SDS011;7177;48.572;7.838;2022-12-29T06:04:01;3.73;;;2.33;;
14191;SDS011;7177;48.572;7.838;2022-12-29T06:06:26;3.90;;;2.50;;
14191;SDS011;7177;48.572;7.838;2022-12-29T06:08:52;5.73;;;2.80;;
14191;SDS011;7177;48.572;7.838;2022-12-29T06:11:18;4.90;;;2.80;;
14191;SDS011;7177;48.572;7.838;2022-12-29T06:13:44;8.10;;;2.93;;
14191;SDS011;7177;48.572;7.838;2022-12-29T06:16:09;6.80;;;3.03;;
14191;SDS011;7177;48.572;7.838;2022-12-29T06:18:35;9.83;;;3.63;;
14191;SDS011;7177;48.572;7.838;2022-12-29T06:21:01;5.00;;;2.90;;
14191;SDS011;7177;48.572;7.838;2022-12-29T06:23:28;3.73;;;3.10;;
14191;SDS011;7177;48.572;7.838;2022-12-29T06:25:54;6.43;;;2.87;;
14191;SDS011;7177;48.572;7.838;2022-12-29T06:28:19;4.93;;;2.90;;
14191;SDS011;7177;48.572;7.838;2022-12-29T06:30:45;5.30;;;2.87;;
14191;SDS011;7177;48.572;7.838;2022-12-29T06:33:11;6.57;;;2.90;;
14191;SDS011;7177;48.572;7.838;2022-12-29T06:35:37;4.33;;;2.80;;
14191;SDS011;7177;48.572;7.838;2022-12-29T06:38:03;4.57;;;2.93;;
14191;SDS011;7177;48.572;7.838;2022-12-29T06:40:29;3.67;;;2.83;;
14191;SDS011;7177;48.572;7.838;2022-12-29T06:42:54;4.47;;;2.90;;
14191;SDS011;7177;48.572;7.838;2022-12-29T06:45:20;5.60;;;3.00;;
14191;SDS011;7177;48.572;7.838;2022-12-29T06:47:46;4.07;;;2.90;;
14191;SDS011;7177;48.572;7.838;2022-12-29T06:50:11;5.07;;;2.80;;
14191;SDS011;7177;48.572;7.838;2022-12-29T06:52:37;4.67;;;2.53;;
14191;SDS011;7177;48.572;7.838;2022-12-29T06:55:02;4.37;;;2.57;;
14191;SDS011;7177;48.572;7.838;2022-12-29T06:57:28;4.47;;;3.17;;
14191;SDS011;7177;48.572;7.838;2022-12-29T06:59:54;6.10;;;2.70;;
14191;SDS011;7177;48.572;7.838;2022-12-29T07:02:20;4.57;;;2.87;;
14191;SDS011;7177;48.572;7.838;2022-12-29T07:04:46;2.97;;;2.43;;
14191;SDS011;7177;48.572;7.838;2022-12-29T07:07:12;4.00;;;3.10;;
14191;SDS011;7177;48.572;7.838;2022-12-29T07:09:37;6.10;;;3.60;;
14191;SDS011;7177;48.572;7.838;2022-12-29T07:12:03;4.53;;;2.90;;
14191;SDS011;7177;48.572;7.838;2022-12-29T07:14:29;9.43;;;3.07;;
14191;SDS011;7177;48.572;7.838;2022-12-29T07:16:54;5.70;;;2.67;;
14191;SDS011;7177;48.572;7.838;2022-12-29T07:19:20;3.87;;;2.70;;
14191;SDS011;7177;48.572;7.838;2022-12-29T07:21:45;5.00;;;2.93;;
14191;SDS011;7177;48.572;7.838;2022-12-29T07:24:11;3.73;;;2.73;;
14191;SDS011;7177;48.572;7.838;2022-12-29T07:26:36;5.13;;;2.70;;
14191;SDS011;7177;48.572;7.838;2022-12-29T07:29:02;3.83;;;2.77;;
14191;SDS011;7177;48.572;7.838;2022-12-29T07:31:28;2.83;;;2.53;;
14191;SDS011;7177;48.572;7.838;2022-12-29T07:33:54;4.13;;;2.67;;
14191;SDS011;7177;48.572;7.838;2022-12-29T07:36:20;3.83;;;2.93;;
14191;SDS011;7177;48.572;7.838;2022-12-29T07:38:45;3.50;;;3.00;;
14191;SDS011;7177;48.572;7.838;2022-12-29T07:41:11;6.57;;;2.67;;
14191;SDS011;7177;48.572;7.838;2022-12-29T07:43:36;3.60;;;2.50;;
14191;SDS011;7177;48.572;7.838;2022-12-29T07:46:02;6.50;;;2.93;;
14191;SDS011;7177;48.572;7.838;2022-12-29T07:48:27;5.87;;;3.00;;
14191;SDS011;7177;48.572;7.838;2022-12-29T07:50:53;4.07;;;2.10;;
14191;SDS011;7177;48.572;7.838;2022-12-29T07:53:19;4.13;;;2.60;;
14191;SDS011;7177;48.572;7.838;2022-12-29T07:55:45;7.90;;;2.87;;
14191;SDS011;7177;48.572;7.838;2022-12-29T07:58:10;4.90;;;2.23;;
14191;SDS011;7177;48.572;7.838;2022-12-29T08:00:36;3.77;;;2.60;;
14191;SDS011;7177;48.572;7.838;2022-12-29T08:03:03;5.37;;;2.63;;
14191;SDS011;7177;48.572;7.838;2022-12-29T08:05:29;3.27;;;2.30;;
14191;SDS011;7177;48.572;7.838;2022-12-29T08:07:55;8.17;;;2.53;;
14191;SDS011;7177;48.572;7.838;2022-12-29T08:10:21;13.23;;;2.27;;
14191;SDS011;7177;48.572;7.838;2022-12-29T08:12:47;3.40;;;2.30;;
14191;SDS011;7177;48.572;7.838;2022-12-29T08:15:13;8.83;;;3.13;;
14191;SDS011;7177;48.572;7.838;2022-12-29T08:17:38;3.83;;;2.40;;
14191;SDS011;7177;48.572;7.838;2022-12-29T08:20:04;6.37;;;2.37;;
14191;SDS011;7177;48.572;7.838;2022-12-29T08:22:30;5.10;;;2.43;;
14191;SDS011;7177;48.572;7.838;2022-12-29T08:24:55;6.53;;;2.40;;
14191;SDS011;7177;48.572;7.838;2022-12-29T08:27:21;4.20;;;2.00;;
14191;SDS011;7177;48.572;7.838;2022-12-29T08:29:47;2.57;;;2.20;;
14191;SDS011;7177;48.572;7.838;2022-12-29T08:32:12;5.30;;;2.43;;
14191;SDS011;7177;48.572;7.838;2022-12-29T08:34:38;3.80;;;2.13;;
14191;SDS011;7177;48.572;7.838;2022-12-29T08:37:03;4.93;;;2.33;;
14191;SDS011;7177;48.572;7.838;2022-12-29T08:39:29;3.90;;;2.10;;
14191;SDS011;7177;48.572;7.838;2022-12-29T08:41:55;5.60;;;2.20;;
14191;SDS011;7177;48.572;7.838;2022-12-29T08:44:20;4.40;;;1.83;;
14191;SDS011;7177;48.572;7.838;2022-12-29T08:46:46;4.47;;;2.13;;
14191;SDS011;7177;48.572;7.838;2022-12-29T08:49:12;3.77;;;2.10;;
14191;SDS011;7177;48.572;7.838;2022-12-29T08:51:37;3.70;;;2.27;;
14191;SDS011;7177;48.572;7.838;2022-12-29T08:54:03;3.70;;;2.20;;
14191;SDS011;7177;48.572;7.838;2022-12-29T08:56:29;7.00;;;2.23;;
14191;SDS011;7177;48.572;7.838;2022-12-29T08:58:54;2.63;;;2.20;;
14191;SDS011;7177;48.572;7.838;2022-12-29T09:01:20;4.97;;;2.23;;
14191;SDS011;7177;48.572;7.838;2022-12-29T09:03:46;3.07;;;2.07;;
14191;SDS011;7177;48.572;7.838;2022-12-29T09:06:11;10.33;;;2.70;;
14191;SDS011;7177;48.572;7.838;2022-12-29T09:08:37;6.57;;;2.70;;
14191;SDS011;7177;48.572;7.838;2022-12-29T09:11:10;5.10;;;2.57;;
14191;SDS011;7177;48.572;7.838;2022-12-29T09:13:38;6.33;;;2.40;;
14191;SDS011;7177;48.572;7.838;2022-12-29T09:16:04;2.97;;;2.10;;
14191;SDS011;7177;48.572;7.838;2022-12-29T09:18:30;6.60;;;2.20;;
14191;SDS011;7177;48.572;7.838;2022-12-29T09:20:57;4.87;;;2.50;;
14191;SDS011;7177;48.572;7.838;2022-12-29T09:23:23;4.93;;;2.50;;
14191;SDS011;7177;48.572;7.838;2022-12-29T09:25:49;5.83;;;2.50;;
14191;SDS011;7177;48.572;7.838;2022-12-29T09:28:14;4.00;;;2.40;;
14191;SDS011;7177;48.572;7.838;2022-12-29T09:30:41;3.97;;;2.50;;
14191;SDS011;7177;48.572;7.838;2022-12-29T09:33:06;4.20;;;2.00;;
14191;SDS011;7177;48.572;7.838;2022-12-29T09:35:32;3.87;;;2.10;;
14191;SDS011;7177;48.572;7.838;2022-12-29T09:37:57;5.63;;;2.70;;
14191;SDS011;7177;48.572;7.838;2022-12-29T09:40:32;4.43;;;2.37;;
14191;SDS011;7177;48.572;7.838;2022-12-29T09:45:45;5.33;;;3.47;;
14191;SDS011;7177;48.572;7.838;2022-12-29T09:48:27;3.30;;;2.27;;
14191;SDS011;7177;48.572;7.838;2022-12-29T09:50:57;5.47;;;2.87;;
14191;SDS011;7177;48.572;7.838;2022-12-29T09:53:27;5.63;;;2.40;;
14191;SDS011;7177;48.572;7.838;2022-12-29T09:56:01;3.57;;;2.20;;
14191;SDS011;7177;48.572;7.838;2022-12-29T09:58:30;4.07;;;2.10;;
14191;SDS011;7177;48.572;7.838;2022-12-29T10:01:14;5.80;;;3.00;;
14191;SDS011;7177;48.572;7.838;2022-12-29T10:06:17;6.63;;;2.73;;
14191;SDS011;7177;48.572;7.838;2022-12-29T10:14:40;4.53;;;2.73;;
14191;SDS011;7177;48.572;7.838;2022-12-29T10:17:34;5.83;;;2.93;;
14191;SDS011;7177;48.572;7.838;2022-12-29T10:22:55;5.20;;;3.17;;
14191;SDS011;7177;48.572;7.838;2022-12-29T10:25:39;6.50;;;3.50;;
14191;SDS011;7177;48.572;7.838;2022-12-29T10:28:21;3.77;;;2.80;;
14191;SDS011;7177;48.572;7.838;2022-12-29T10:30:48;8.07;;;2.93;;
14191;SDS011;7177;48.572;7.838;2022-12-29T10:33:21;6.07;;;2.57;;
14191;SDS011;7177;48.572;7.838;2022-12-29T10:35:51;3.23;;;2.40;;
14191;SDS011;7177;48.572;7.838;2022-12-29T10:38:28;3.73;;;2.00;;
14191;SDS011;7177;48.572;7.838;2022-12-29T10:41:05;7.57;;;1.80;;
14191;SDS011;7177;48.572;7.838;2022-12-29T10:43:45;2.10;;;1.40;;
14191;SDS011;7177;48.572;7.838;2022-12-29T10:46:13;3.10;;;1.50;;
14191;SDS011;7177;48.572;7.838;2022-12-29T10:48:44;3.80;;;1.70;;
14191;SDS011;7177;48.572;7.838;2022-12-29T10:51:14;2.47;;;1.17;;
14191;SDS011;7177;48.572;7.838;2022-12-29T10:53:59;2.97;;;1.57;;
14191;SDS011;7177;48.572;7.838;2022-12-29T10:57:01;3.17;;;1.67;;
14191;SDS011;7177;48.572;7.838;2022-12-29T10:59:30;2.20;;;1.47;;
14191;SDS011;7177;48.572;7.838;2022-12-29T11:07:18;1.87;;;1.43;;
14191;SDS011;7177;48.572;7.838;2022-12-29T11:09:44;5.10;;;1.60;;
14191;SDS011;7177;48.572;7.838;2022-12-29T11:12:18;3.30;;;1.60;;
14191;SDS011;7177;48.572;7.838;2022-12-29T11:15:01;7.83;;;1.80;;
14191;SDS011;7177;48.572;7.838;2022-12-29T11:17:47;2.83;;;1.70;;
14191;SDS011;7177;48.572;7.838;2022-12-29T11:22:57;2.43;;;1.40;;
14191;SDS011;7177;48.572;7.838;2022-12-29T11:25:23;2.63;;;1.70;;
14191;SDS011;7177;48.572;7.838;2022-12-29T11:27:59;1.77;;;1.43;;
14191;SDS011;7177;48.572;7.838;2022-12-29T11:30:28;2.20;;;1.47;;
14191;SDS011;7177;48.572;7.838;2022-12-29T11:32:56;2.20;;;1.77;;
14191;SDS011;7177;48.572;7.838;2022-12-29T11:37:59;3.13;;;1.90;;
14191;SDS011;7177;48.572;7.838;2022-12-29T11:40:26;3.00;;;1.80;;
14191;SDS011;7177;48.572;7.838;2022-12-29T11:45:29;3.07;;;1.90;;
14191;SDS011;7177;48.572;7.838;2022-12-29T11:48:07;3.97;;;2.10;;
14191;SDS011;7177;48.572;7.838;2022-12-29T11:50:37;2.93;;;1.90;;
14191;SDS011;7177;48.572;7.838;2022-12-29T11:53:07;3.00;;;2.30;;
14191;SDS011;7177;48.572;7.838;2022-12-29T11:55:50;3.83;;;2.40;;
14191;SDS011;7177;48.572;7.838;2022-12-29T11:58:17;4.13;;;2.50;;
14191;SDS011;7177;48.572;7.838;2022-12-29T12:00:43;4.23;;;2.10;;
14191;SDS011;7177;48.572;7.838;2022-12-29T12:03:21;4.03;;;2.00;;
14191;SDS011;7177;48.572;7.838;2022-12-29T12:05:50;3.30;;;2.00;;
14191;SDS011;7177;48.572;7.838;2022-12-29T12:11:03;3.00;;;2.20;;
14191;SDS011;7177;48.572;7.838;2022-12-29T12:13:47;3.27;;;2.20;;
14191;SDS011;7177;48.572;7.838;2022-12-29T12:16:47;3.23;;;2.30;;
14191;SDS011;7177;48.572;7.838;2022-12-29T12:21:54;3.33;;;2.00;;
14191;SDS011;7177;48.572;7.838;2022-12-29T12:24:46;6.20;;;2.03;;
14191;SDS011;7177;48.572;7.838;2022-12-29T12:27:13;2.53;;;2.20;;
14191;SDS011;7177;48.572;7.838;2022-12-29T12:41:05;3.57;;;1.87;;
14191;SDS011;7177;48.572;7.838;2022-12-29T12:57:47;4.37;;;2.20;;
14191;SDS011;7177;48.572;7.838;2022-12-29T13:00:20;8.27;;;2.43;;
14191;SDS011;7177;48.572;7.838;2022-12-29T13:11:45;5.33;;;2.50;;
14191;SDS011;7177;48.572;7.838;2022-12-29T13:14:34;3.97;;;2.40;;
14191;SDS011;7177;48.572;7.838;2022-12-29T13:17:08;3.90;;;2.63;;
14191;SDS011;7177;48.572;7.838;2022-12-29T13:19:46;8.43;;;2.43;;
14191;SDS011;7177;48.572;7.838;2022-12-29T13:28:16;5.77;;;2.23;;
14191;SDS011;7177;48.572;7.838;2022-12-29T13:31:00;5.50;;;2.53;;
14191;SDS011;7177;48.572;7.838;2022-12-29T13:36:30;3.70;;;2.30;;
14191;SDS011;7177;48.572;7.838;2022-12-29T13:41:36;4.93;;;2.30;;
14191;SDS011;7177;48.572;7.838;2022-12-29T13:44:06;2.97;;;2.20;;
14191;SDS011;7177;48.572;7.838;2022-12-29T13:46:41;6.10;;;3.13;;
14191;SDS011;7177;48.572;7.838;2022-12-29T13:49:16;5.53;;;2.00;;
14191;SDS011;7177;48.572;7.838;2022-12-29T13:51:47;4.13;;;2.60;;
14191;SDS011;7177;48.572;7.838;2022-12-29T13:58:05;2.93;;;2.10;;
14191;SDS011;7177;48.572;7.838;2022-12-29T14:03:35;2.83;;;2.37;;
14191;SDS011;7177;48.572;7.838;2022-12-29T14:06:20;7.50;;;2.73;;
14191;SDS011;7177;48.572;7.838;2022-12-29T14:08:52;6.70;;;2.23;;
14191;SDS011;7177;48.572;7.838;2022-12-29T14:11:34;5.03;;;2.80;;
14191;SDS011;7177;48.572;7.838;2022-12-29T14:14:21;3.40;;;2.20;;
14191;SDS011;7177;48.572;7.838;2022-12-29T14:16:53;3.93;;;2.50;;
14191;SDS011;7177;48.572;7.838;2022-12-29T14:19:21;4.80;;;2.63;;
14191;SDS011;7177;48.572;7.838;2022-12-29T14:21:58;7.50;;;2.80;;
14191;SDS011;7177;48.572;7.838;2022-12-29T14:34:57;5.43;;;2.57;;
14191;SDS011;7177;48.572;7.838;2022-12-29T14:39:49;4.30;;;2.00;;
14191;SDS011;7177;48.572;7.838;2022-12-29T14:42:26;8.80;;;2.70;;
14191;SDS011;7177;48.572;7.838;2022-12-29T14:47:40;5.23;;;2.97;;
14191;SDS011;7177;48.572;7.838;2022-12-29T14:52:54;7.90;;;3.43;;
14191;SDS011;7177;48.572;7.838;2022-12-29T14:55:30;4.73;;;3.00;;
14191;SDS011;7177;48.572;7.838;2022-12-29T14:58:00;4.83;;;2.43;;
14191;SDS011;7177;48.572;7.838;2022-12-29T15:00:29;4.77;;;2.20;;
14191;SDS011;7177;48.572;7.838;2022-12-29T15:05:30;5.83;;;1.70;;
14191;SDS011;7177;48.572;7.838;2022-12-29T15:08:02;3.77;;;1.70;;
14191;SDS011;7177;48.572;7.838;2022-12-29T15:10:34;3.83;;;1.80;;
14191;SDS011;7177;48.572;7.838;2022-12-29T15:13:05;3.37;;;1.70;;
14191;SDS011;7177;48.572;7.838;2022-12-29T15:15:39;4.87;;;1.90;;
14191;SDS011;7177;48.572;7.838;2022-12-29T15:20:56;7.87;;;2.03;;
14191;SDS011;7177;48.572;7.838;2022-12-29T15:23:24;5.80;;;2.03;;
14191;SDS011;7177;48.572;7.838;2022-12-29T15:25:53;4.30;;;2.03;;
14191;SDS011;7177;48.572;7.838;2022-12-29T15:28:24;2.93;;;2.10;;
14191;SDS011;7177;48.572;7.838;2022-12-29T15:31:03;9.63;;;3.27;;
14191;SDS011;7177;48.572;7.838;2022-12-29T15:33:30;5.63;;;2.20;;
14191;SDS011;7177;48.572;7.838;2022-12-29T15:36:02;7.47;;;2.63;;
14191;SDS011;7177;48.572;7.838;2022-12-29T15:38:34;6.20;;;2.17;;
14191;SDS011;7177;48.572;7.838;2022-12-29T15:41:02;6.70;;;2.47;;
14191;SDS011;7177;48.572;7.838;2022-12-29T15:46:23;6.13;;;2.47;;
14191;SDS011;7177;48.572;7.838;2022-12-29T15:48:49;6.03;;;2.67;;
14191;SDS011;7177;48.572;7.838;2022-12-29T15:51:18;4.67;;;2.33;;
14191;SDS011;7177;48.572;7.838;2022-12-29T15:53:50;6.30;;;2.70;;
14191;SDS011;7177;48.572;7.838;2022-12-29T15:56:16;5.87;;;2.77;;
14191;SDS011;7177;48.572;7.838;2022-12-29T15:58:44;8.33;;;2.70;;
14191;SDS011;7177;48.572;7.838;2022-12-29T16:01:30;4.43;;;2.50;;
14191;SDS011;7177;48.572;7.838;2022-12-29T16:03:58;6.20;;;2.40;;
14191;SDS011;7177;48.572;7.838;2022-12-29T16:06:34;4.33;;;2.10;;
14191;SDS011;7177;48.572;7.838;2022-12-29T16:09:03;3.47;;;2.20;;
14191;SDS011;7177;48.572;7.838;2022-12-29T16:11:38;5.20;;;2.47;;
14191;SDS011;7177;48.572;7.838;2022-12-29T16:14:06;5.33;;;2.50;;
14191;SDS011;7177;48.572;7.838;2022-12-29T16:16:36;4.20;;;2.40;;
14191;SDS011;7177;48.572;7.838;2022-12-29T16:19:09;5.33;;;2.80;;
14191;SDS011;7177;48.572;7.838;2022-12-29T16:21:38;8.63;;;2.77;;
14191;SDS011;7177;48.572;7.838;2022-12-29T16:24:07;4.37;;;2.40;;
14191;SDS011;7177;48.572;7.838;2022-12-29T16:26:38;8.13;;;3.13;;
14191;SDS011;7177;48.572;7.838;2022-12-29T16:29:05;8.13;;;4.00;;
14191;SDS011;7177;48.572;7.838;2022-12-29T16:34:25;7.00;;;4.00;;
14191;SDS011;7177;48.572;7.838;2022-12-29T16:37:19;8.37;;;3.83;;
14191;SDS011;7177;48.572;7.838;2022-12-29T16:39:54;11.40;;;6.37;;
14191;SDS011;7177;48.572;7.838;2022-12-29T16:42:32;8.07;;;4.83;;
14191;SDS011;7177;48.572;7.838;2022-12-29T16:45:34;10.63;;;3.60;;
14191;SDS011;7177;48.572;7.838;2022-12-29T16:48:17;6.73;;;3.17;;
14191;SDS011;7177;48.572;7.838;2022-12-29T16:50:44;5.90;;;3.43;;
14191;SDS011;7177;48.572;7.838;2022-12-29T16:53:47;5.63;;;3.23;;
14191;SDS011;7177;48.572;7.838;2022-12-29T16:56:25;9.07;;;3.93;;
14191;SDS011;7177;48.572;7.838;2022-12-29T16:58:53;6.37;;;4.00;;
14191;SDS011;7177;48.572;7.838;2022-12-29T17:01:26;6.70;;;4.27;;
14191;SDS011;7177;48.572;7.838;2022-12-29T17:03:53;5.97;;;3.93;;
14191;SDS011;7177;48.572;7.838;2022-12-29T17:06:24;6.90;;;4.27;;
14191;SDS011;7177;48.572;7.838;2022-12-29T17:08:50;8.03;;;4.13;;
14191;SDS011;7177;48.572;7.838;2022-12-29T17:11:32;8.57;;;4.87;;
14191;SDS011;7177;48.572;7.838;2022-12-29T17:17:49;7.13;;;5.13;;
14191;SDS011;7177;48.572;7.838;2022-12-29T17:20:04;8.27;;;4.17;;
14191;SDS011;7177;48.572;7.838;2022-12-29T17:22:40;9.77;;;4.27;;
14191;SDS011;7177;48.572;7.838;2022-12-29T17:25:06;8.13;;;5.00;;
14191;SDS011;7177;48.572;7.838;2022-12-29T17:27:43;7.03;;;4.10;;
14191;SDS011;7177;48.572;7.838;2022-12-29T17:32:42;3.40;;;2.43;;
14191;SDS011;7177;48.572;7.838;2022-12-29T17:35:13;3.17;;;1.87;;
14191;SDS011;7177;48.572;7.838;2022-12-29T17:37:39;6.93;;;3.00;;
14191;SDS011;7177;48.572;7.838;2022-12-29T17:40:06;7.57;;;2.77;;
14191;SDS011;7177;48.572;7.838;2022-12-29T17:42:35;2.87;;;2.20;;
14191;SDS011;7177;48.572;7.838;2022-12-29T17:45:04;5.43;;;3.23;;
14191;SDS011;7177;48.572;7.838;2022-12-29T17:47:30;2.97;;;2.67;;
14191;SDS011;7177;48.572;7.838;2022-12-29T17:49:56;5.37;;;2.43;;
14191;SDS011;7177;48.572;7.838;2022-12-29T17:52:21;4.00;;;1.83;;
14191;SDS011;7177;48.572;7.838;2022-12-29T17:54:49;5.63;;;2.23;;